createdAt,value
2023-02-07T00:01:51.023Z,23.30
2023-02-07T00:04:19.834Z,23.17
2023-02-07T00:06:48.695Z,24.93
2023-02-07T00:09:17.757Z,26.30
2023-02-07T00:11:48.528Z,26.00
2023-02-07T00:14:17.388Z,27.13
2023-02-07T00:16:46.558Z,24.33
2023-02-07T00:19:16.948Z,26.33
2023-02-07T00:21:45.741Z,21.93
2023-02-07T00:24:14.538Z,22.77
2023-02-07T00:26:43.591Z,21.70
2023-02-07T00:29:14.091Z,21.10
2023-02-07T00:31:42.991Z,27.47
2023-02-07T00:34:13.126Z,29.97
2023-02-07T00:36:43.036Z,27.70
2023-02-07T00:39:16.792Z,25.60
2023-02-07T00:41:47.030Z,28.13
2023-02-07T00:44:17.470Z,28.73
2023-02-07T00:46:46.226Z,32.60
2023-02-07T00:49:15.458Z,31.33
2023-02-07T00:51:44.190Z,29.97
2023-02-07T00:54:12.972Z,30.60
2023-02-07T00:56:41.797Z,28.23
2023-02-07T00:59:10.806Z,29.07
2023-02-07T01:01:40.973Z,27.40
2023-02-07T01:04:09.762Z,28.93
2023-02-07T01:06:38.646Z,30.43
2023-02-07T01:09:08.342Z,27.80
2023-02-07T01:11:37.166Z,28.77
2023-02-07T01:14:06.094Z,27.30
2023-02-07T01:16:37.479Z,24.43
2023-02-07T01:19:10.254Z,30.10
2023-02-07T01:21:40.284Z,26.57
2023-02-07T01:24:10.378Z,23.27
2023-02-07T01:26:40.524Z,28.33
2023-02-07T01:29:09.925Z,33.03
2023-02-07T01:31:38.822Z,27.37
2023-02-07T01:34:09.205Z,25.63
2023-02-07T01:36:37.995Z,31.23
2023-02-07T01:39:06.771Z,28.00
2023-02-07T01:41:35.554Z,30.07
2023-02-07T01:44:07.969Z,29.70
2023-02-07T01:46:37.721Z,32.40
2023-02-07T01:49:14.454Z,24.73
2023-02-07T01:51:49.325Z,25.23
2023-02-07T01:54:20.174Z,25.27
2023-02-07T01:56:59.694Z,25.70
2023-02-07T01:59:30.564Z,26.57
2023-02-07T02:02:05.966Z,24.83
2023-02-07T02:04:36.125Z,26.83
2023-02-07T02:07:07.769Z,26.87
2023-02-07T02:09:37.968Z,25.03
2023-02-07T02:12:25.809Z,23.40
2023-02-07T02:15:16.298Z,28.63
2023-02-07T02:18:25.019Z,23.23
2023-02-07T02:21:34.640Z,22.43
2023-02-07T02:24:59.316Z,20.43
2023-02-07T02:27:53.595Z,23.97
2023-02-07T02:31:02.761Z,22.77
2023-02-07T02:33:50.039Z,27.80
2023-02-07T02:36:32.490Z,26.87
2023-02-07T02:39:10.728Z,27.33
2023-02-07T02:41:48.560Z,30.53
2023-02-07T02:44:25.599Z,30.73
2023-02-07T02:46:56.846Z,29.60
2023-02-07T02:49:27.480Z,30.63
2023-02-07T02:51:56.274Z,33.90
2023-02-07T02:54:35.780Z,30.43
2023-02-07T02:57:28.063Z,32.77
2023-02-07T03:00:22.046Z,30.00
2023-02-07T03:03:12.005Z,33.13
2023-02-07T03:06:02.201Z,32.67
2023-02-07T03:08:55.585Z,38.40
2023-02-07T03:11:26.843Z,34.80
2023-02-07T03:14:08.604Z,33.60
2023-02-07T03:16:50.107Z,36.83
2023-02-07T03:19:26.789Z,32.90
2023-02-07T03:22:00.496Z,36.23
2023-02-07T03:24:35.625Z,35.07
2023-02-07T03:27:09.603Z,37.53
2023-02-07T03:29:43.001Z,39.73
2023-02-07T03:32:14.066Z,35.87
2023-02-07T03:34:52.286Z,37.27
2023-02-07T03:37:28.672Z,42.53
2023-02-07T03:39:59.034Z,40.20
2023-02-07T03:42:33.804Z,46.77
2023-02-07T03:45:05.201Z,39.23
2023-02-07T03:47:33.987Z,41.63
2023-02-07T03:50:02.829Z,46.37
2023-02-07T03:52:31.572Z,43.23
2023-02-07T03:55:01.689Z,43.03
2023-02-07T03:57:30.497Z,42.10
2023-02-07T03:59:59.313Z,41.23
2023-02-07T04:02:28.272Z,40.80
2023-02-07T04:04:57.082Z,45.47
2023-02-07T04:07:25.834Z,47.57
2023-02-07T04:09:54.687Z,44.00
2023-02-07T04:12:24.898Z,47.33
2023-02-07T04:14:53.692Z,47.10
2023-02-07T04:17:22.443Z,43.13
2023-02-07T04:19:51.144Z,40.73
2023-02-07T04:22:19.984Z,44.43
2023-02-07T04:24:49.126Z,45.90
2023-02-07T04:27:18.564Z,43.87
2023-02-07T04:29:49.028Z,44.93
2023-02-07T04:32:17.794Z,47.00
2023-02-07T04:34:46.609Z,42.57
2023-02-07T04:37:15.709Z,44.37
2023-02-07T04:39:44.436Z,45.57
2023-02-07T04:42:13.452Z,45.13
2023-02-07T04:44:42.338Z,51.50
2023-02-07T04:47:12.559Z,57.37
2023-02-07T04:49:41.273Z,47.07
2023-02-07T04:52:10.105Z,88.20
2023-02-07T04:54:38.971Z,73.47
2023-02-07T04:57:07.824Z,46.57
2023-02-07T04:59:36.578Z,45.30
2023-02-07T05:02:05.407Z,42.83
2023-02-07T05:04:35.571Z,49.47
2023-02-07T05:07:04.418Z,44.90
2023-02-07T05:09:33.283Z,41.30
2023-02-07T05:12:02.830Z,43.13
2023-02-07T05:14:31.594Z,41.50
2023-02-07T05:17:00.396Z,42.60
2023-02-07T05:19:30.167Z,44.43
2023-02-07T05:22:00.635Z,41.87
2023-02-07T05:24:29.836Z,40.23
2023-02-07T05:26:59.079Z,39.40
2023-02-07T05:29:28.298Z,44.83
2023-02-07T05:32:15.031Z,47.80
2023-02-07T05:34:43.869Z,41.87
2023-02-07T05:37:14.147Z,44.37
2023-02-07T05:39:42.970Z,42.97
2023-02-07T05:42:11.771Z,44.33
2023-02-07T05:44:40.577Z,45.17
2023-02-07T05:47:09.400Z,46.70
2023-02-07T05:49:39.348Z,40.00
2023-02-07T05:52:08.257Z,47.53
2023-02-07T05:54:38.381Z,42.77
2023-02-07T05:57:07.108Z,46.87
2023-02-07T05:59:35.893Z,43.57
2023-02-07T06:02:04.752Z,46.40
2023-02-07T06:04:33.522Z,43.23
2023-02-07T06:07:02.349Z,50.77
2023-02-07T06:09:31.166Z,47.97
2023-02-07T06:12:03.679Z,46.43
2023-02-07T06:14:33.678Z,44.57
2023-02-07T06:17:02.564Z,50.27
2023-02-07T06:19:31.330Z,43.27
2023-02-07T06:22:00.277Z,42.60
2023-02-07T06:24:29.090Z,43.53
2023-02-07T06:26:57.848Z,45.93
2023-02-07T06:29:28.052Z,41.90
2023-02-07T06:31:57.363Z,44.47
2023-02-07T06:34:26.565Z,42.97
2023-02-07T06:36:55.337Z,40.33
2023-02-07T06:39:24.275Z,39.90
2023-02-07T06:41:53.021Z,43.27
2023-02-07T06:44:21.764Z,44.37
2023-02-07T06:46:52.045Z,40.13
2023-02-07T06:49:20.849Z,42.20
2023-02-07T06:51:49.555Z,42.23
2023-02-07T06:54:18.331Z,40.13
2023-02-07T06:56:47.111Z,41.63
2023-02-07T06:59:16.175Z,39.13
2023-02-07T07:01:45.380Z,40.13
2023-02-07T07:04:16.582Z,39.10
2023-02-07T07:06:45.433Z,38.23
2023-02-07T07:09:14.889Z,40.90
2023-02-07T07:11:44.435Z,41.00
2023-02-07T07:14:14.194Z,39.83
2023-02-07T07:16:43.152Z,42.40
2023-02-07T07:19:12.281Z,40.43
2023-02-07T07:21:42.639Z,34.97
2023-02-07T07:24:11.829Z,40.77
2023-02-07T07:26:49.341Z,39.63
2023-02-07T07:29:19.911Z,38.77
2023-02-07T07:31:48.743Z,38.00
2023-02-07T07:34:18.174Z,33.77
2023-02-07T07:36:48.294Z,38.20
2023-02-07T07:39:17.252Z,40.00
2023-02-07T07:41:46.014Z,38.60
2023-02-07T07:44:14.801Z,39.20
2023-02-07T07:46:43.836Z,34.23
2023-02-07T07:49:12.722Z,41.10
2023-02-07T07:51:41.551Z,34.87
2023-02-07T07:54:11.839Z,39.80
2023-02-07T07:56:40.746Z,36.57
2023-02-07T07:59:20.102Z,35.50
2023-02-07T08:01:52.361Z,36.33
2023-02-07T08:04:21.161Z,37.10
2023-02-07T08:06:50.050Z,34.80
2023-02-07T08:09:20.402Z,32.70
2023-02-07T08:11:49.137Z,34.83
2023-02-07T08:14:17.853Z,30.67
2023-02-07T08:16:46.669Z,30.33
2023-02-07T08:19:15.483Z,30.40
2023-02-07T08:21:44.909Z,34.92
2023-02-07T08:24:13.805Z,36.27
2023-02-07T08:26:44.182Z,35.88
2023-02-07T08:29:13.389Z,34.75
2023-02-07T08:31:42.168Z,32.97
2023-02-07T08:34:12.158Z,32.05
2023-02-07T08:36:40.975Z,29.50
2023-02-07T08:39:09.721Z,28.10
2023-02-07T08:41:38.724Z,28.08
2023-02-07T08:44:09.153Z,26.17
2023-02-07T08:46:38.020Z,23.70
2023-02-07T08:49:06.850Z,25.42
2023-02-07T08:51:35.641Z,30.27
2023-02-07T08:54:04.728Z,29.08
2023-02-07T08:56:33.504Z,28.83
2023-02-07T08:59:02.296Z,35.25
2023-02-07T09:01:32.469Z,32.95
2023-02-07T09:04:01.344Z,32.70
2023-02-07T09:06:30.376Z,31.67
2023-02-07T09:08:59.200Z,30.67
2023-02-07T09:11:28.153Z,31.67
2023-02-07T09:13:56.974Z,28.40
2023-02-07T09:16:26.024Z,29.50
2023-02-07T09:18:56.749Z,30.85
2023-02-07T09:21:25.812Z,29.65
2023-02-07T09:23:55.842Z,34.53
2023-02-07T09:26:26.721Z,33.40
2023-02-07T09:28:55.514Z,28.90
2023-02-07T09:31:24.862Z,33.60
2023-02-07T09:33:55.315Z,35.72
2023-02-07T09:36:27.718Z,33.45
2023-02-07T09:38:56.888Z,47.88
2023-02-07T09:41:38.137Z,39.70
2023-02-07T09:44:17.525Z,41.65
2023-02-07T09:46:54.042Z,40.78
2023-02-07T09:49:38.241Z,39.90
2023-02-07T09:52:13.064Z,31.52
2023-02-07T09:54:46.424Z,29.75
2023-02-07T09:57:20.503Z,30.52
2023-02-07T09:59:56.193Z,33.70
2023-02-07T10:02:34.271Z,31.85
2023-02-07T10:05:16.729Z,36.72
2023-02-07T10:07:47.436Z,37.75
2023-02-07T10:10:18.996Z,34.08
2023-02-07T10:13:08.731Z,33.25
2023-02-07T10:16:16.476Z,31.88
2023-02-07T10:18:52.170Z,32.38
2023-02-07T10:21:36.911Z,34.35
2023-02-07T10:24:31.864Z,33.55
2023-02-07T10:27:10.718Z,36.75
2023-02-07T10:29:57.961Z,34.40
2023-02-07T10:32:32.589Z,48.30
2023-02-07T10:35:09.738Z,39.35
2023-02-07T10:37:40.487Z,33.85
2023-02-07T10:40:20.738Z,33.08
2023-02-07T10:42:57.809Z,31.88
2023-02-07T10:45:27.025Z,31.42
2023-02-07T10:47:57.736Z,32.92
2023-02-07T10:50:30.574Z,35.80
2023-02-07T10:53:01.755Z,32.03
2023-02-07T10:55:43.178Z,33.05
2023-02-07T10:58:23.392Z,33.05
2023-02-07T11:00:54.961Z,35.65
2023-02-07T11:03:25.799Z,32.83
2023-02-07T11:05:59.916Z,34.33
2023-02-07T11:08:32.911Z,35.90
2023-02-07T11:11:26.262Z,31.23
2023-02-07T11:13:56.264Z,30.23
2023-02-07T11:16:26.494Z,36.03
2023-02-07T11:19:00.050Z,32.55
2023-02-07T11:21:35.911Z,32.10
2023-02-07T11:24:14.063Z,30.17
2023-02-07T11:26:57.104Z,33.38
2023-02-07T11:29:27.647Z,28.40
2023-02-07T11:32:01.307Z,30.05
2023-02-07T11:34:47.083Z,25.17
2023-02-07T11:37:30.379Z,26.48
2023-02-07T11:40:25.274Z,24.13
2023-02-07T11:43:03.715Z,28.17
2023-02-07T11:45:35.669Z,25.55
2023-02-07T11:48:06.421Z,24.98
2023-02-07T11:50:41.129Z,25.83
2023-02-07T11:53:24.789Z,25.15
2023-02-07T11:55:57.390Z,24.48
2023-02-07T11:58:36.233Z,27.38
2023-02-07T12:01:08.192Z,26.38
2023-02-07T12:03:45.061Z,26.17
2023-02-07T12:06:20.547Z,25.38
2023-02-07T12:08:52.305Z,24.52
2023-02-07T12:11:28.486Z,28.10
2023-02-07T12:14:03.551Z,29.00
2023-02-07T12:16:39.531Z,26.52
2023-02-07T12:19:19.942Z,26.65
2023-02-07T12:22:01.271Z,30.30
2023-02-07T12:24:38.814Z,25.00
2023-02-07T12:27:17.104Z,27.75
2023-02-07T12:30:03.339Z,25.55
2023-02-07T12:32:43.511Z,27.85
2023-02-07T12:35:24.543Z,30.50
2023-02-07T12:38:06.414Z,28.17
2023-02-07T12:40:44.359Z,28.08
2023-02-07T12:43:22.463Z,27.15
2023-02-07T12:46:22.453Z,26.15
2023-02-07T12:49:23.542Z,31.85
2023-02-07T12:52:10.362Z,31.30
2023-02-07T12:54:55.970Z,30.37
2023-02-07T12:57:37.857Z,34.57
2023-02-07T13:00:20.881Z,30.40
2023-02-07T13:03:15.058Z,27.93
2023-02-07T13:06:06.038Z,28.00
2023-02-07T13:08:52.548Z,29.73
2023-02-07T13:11:38.578Z,27.37
2023-02-07T13:14:26.735Z,29.45
2023-02-07T13:17:21.182Z,30.03
2023-02-07T13:19:57.588Z,25.50
2023-02-07T13:22:38.362Z,34.73
2023-02-07T13:25:16.233Z,27.57
2023-02-07T13:27:46.246Z,25.67
2023-02-07T13:30:18.658Z,25.53
2023-02-07T13:32:50.688Z,25.00
2023-02-07T13:35:24.783Z,25.93
2023-02-07T13:38:08.441Z,26.17
2023-02-07T13:40:53.048Z,24.87
2023-02-07T13:43:39.677Z,26.20
2023-02-07T13:46:27.994Z,22.57
2023-02-07T13:49:07.473Z,22.27
2023-02-07T13:51:57.863Z,22.23
2023-02-07T13:54:42.417Z,28.10
2023-02-07T13:57:41.066Z,25.00
2023-02-07T14:00:20.977Z,23.83
2023-02-07T14:02:54.393Z,25.53
2023-02-07T14:05:35.646Z,25.33
2023-02-07T14:08:23.142Z,24.30
2023-02-07T14:10:53.607Z,25.00
2023-02-07T14:13:34.781Z,24.93
2023-02-07T14:16:09.485Z,23.67
2023-02-07T14:18:50.180Z,25.80
2023-02-07T14:21:43.368Z,23.77
2023-02-07T14:24:34.136Z,23.30
2023-02-07T14:27:25.970Z,23.13
2023-02-07T14:30:10.895Z,25.80
2023-02-07T14:33:05.656Z,23.40
2023-02-07T14:35:38.942Z,27.30
2023-02-07T14:38:33.366Z,25.50
2023-02-07T14:41:11.485Z,26.07
2023-02-07T14:44:07.461Z,28.83
2023-02-07T14:46:42.137Z,23.43
2023-02-07T14:49:21.977Z,24.63
2023-02-07T14:51:55.430Z,32.63
2023-02-07T14:54:32.598Z,33.60
2023-02-07T14:57:18.388Z,25.70
2023-02-07T15:00:00.428Z,27.60
2023-02-07T15:02:38.609Z,29.33
2023-02-07T15:05:22.570Z,24.10
2023-02-07T15:08:07.836Z,23.27
2023-02-07T15:10:43.083Z,24.33
2023-02-07T15:13:25.869Z,21.77
2023-02-07T15:15:59.478Z,22.67
2023-02-07T15:18:34.706Z,21.97
2023-02-07T15:21:04.524Z,22.20
2023-02-07T15:23:34.303Z,22.93
2023-02-07T15:26:09.043Z,23.93
2023-02-07T15:28:38.009Z,24.43
2023-02-07T15:31:14.092Z,21.80
2023-02-07T15:33:53.457Z,22.17
2023-02-07T15:36:36.356Z,24.17
2023-02-07T15:39:09.483Z,34.30
2023-02-07T15:41:39.817Z,26.93
2023-02-07T15:44:21.254Z,20.73
2023-02-07T15:46:52.426Z,20.90
2023-02-07T15:49:34.359Z,23.17
2023-02-07T15:52:14.036Z,22.07
2023-02-07T15:54:48.028Z,23.10
2023-02-07T15:57:28.473Z,21.80
2023-02-07T16:00:02.930Z,23.73
2023-02-07T16:02:35.363Z,20.67
2023-02-07T16:05:10.973Z,23.17
2023-02-07T16:07:40.609Z,18.60
2023-02-07T16:10:34.040Z,22.63
2023-02-07T16:13:12.217Z,21.63
2023-02-07T16:15:56.043Z,19.70
2023-02-07T16:18:39.797Z,23.33
2023-02-07T16:21:17.289Z,25.40
2023-02-07T16:23:48.217Z,21.93
2023-02-07T16:26:19.823Z,23.80
2023-02-07T16:28:50.273Z,22.27
2023-02-07T16:31:19.281Z,32.47
2023-02-07T16:33:48.132Z,24.93
2023-02-07T16:36:19.586Z,24.00
2023-02-07T16:38:48.543Z,22.50
2023-02-07T16:41:31.460Z,22.60
2023-02-07T16:44:03.927Z,24.40
2023-02-07T16:46:33.232Z,25.77
2023-02-07T16:49:02.627Z,22.87
2023-02-07T16:51:31.420Z,22.87
2023-02-07T16:54:00.204Z,22.80
2023-02-07T16:56:29.772Z,23.97
2023-02-07T16:58:58.581Z,24.17
2023-02-07T17:01:28.760Z,24.90
2023-02-07T17:03:57.923Z,22.27
2023-02-07T17:06:27.441Z,22.20
2023-02-07T17:08:56.617Z,23.40
2023-02-07T17:11:27.356Z,23.13
2023-02-07T17:13:58.751Z,25.17
2023-02-07T17:16:29.623Z,24.33
2023-02-07T17:18:59.810Z,25.17
2023-02-07T17:21:28.662Z,25.87
2023-02-07T17:23:57.483Z,24.87
2023-02-07T17:26:31.282Z,22.20
2023-02-07T17:29:00.412Z,25.30
2023-02-07T17:31:32.183Z,24.93
2023-02-07T17:34:01.212Z,26.40
2023-02-07T17:36:30.153Z,28.93
2023-02-07T17:39:00.240Z,26.87
2023-02-07T17:41:29.321Z,28.00
2023-02-07T17:43:58.212Z,25.90
2023-02-07T17:46:29.870Z,26.90
2023-02-07T17:48:58.749Z,26.60
2023-02-07T17:51:29.962Z,26.33
2023-02-07T17:53:58.896Z,23.80
2023-02-07T17:56:30.533Z,23.63
2023-02-07T17:59:02.448Z,24.27
2023-02-07T18:01:33.761Z,23.63
2023-02-07T18:04:05.083Z,24.20
2023-02-07T18:06:34.057Z,27.00
2023-02-07T18:09:02.938Z,23.43
2023-02-07T18:11:31.733Z,25.20
2023-02-07T18:14:02.013Z,24.87
2023-02-07T18:16:32.262Z,22.20
2023-02-07T18:19:01.024Z,25.47
2023-02-07T18:21:29.862Z,24.57
2023-02-07T18:23:58.871Z,25.77
2023-02-07T18:26:27.660Z,26.00
2023-02-07T18:28:56.439Z,25.37
2023-02-07T18:31:27.216Z,26.37
2023-02-07T18:33:57.500Z,23.60
2023-02-07T18:36:29.988Z,24.20
2023-02-07T18:39:00.252Z,26.90
2023-02-07T18:41:29.078Z,24.47
2023-02-07T18:43:57.909Z,24.40
2023-02-07T18:46:27.744Z,25.43
2023-02-07T18:48:58.901Z,27.73
2023-02-07T18:51:28.193Z,24.43
2023-02-07T18:53:57.056Z,27.57
2023-02-07T18:56:27.956Z,24.33
2023-02-07T18:58:57.685Z,24.67
2023-02-07T19:01:28.773Z,23.13
2023-02-07T19:04:01.676Z,26.03
2023-02-07T19:06:33.169Z,22.47
2023-02-07T19:09:02.406Z,24.63
2023-02-07T19:11:31.401Z,24.23
2023-02-07T19:14:00.292Z,23.03
2023-02-07T19:16:29.760Z,22.10
2023-02-07T19:19:03.395Z,23.23
2023-02-07T19:21:32.547Z,24.47
2023-02-07T19:24:06.230Z,22.17
2023-02-07T19:26:35.545Z,21.23
2023-02-07T19:29:05.992Z,26.27
2023-02-07T19:31:37.377Z,27.07
2023-02-07T19:34:07.615Z,24.13
2023-02-07T19:36:36.429Z,24.07
2023-02-07T19:39:07.085Z,25.33
2023-02-07T19:41:36.528Z,25.30
2023-02-07T19:44:05.943Z,22.13
2023-02-07T19:46:34.849Z,26.87
2023-02-07T19:49:04.682Z,22.30
2023-02-07T19:51:34.874Z,22.07
2023-02-07T19:54:04.640Z,25.13
2023-02-07T19:56:35.239Z,24.60
2023-02-07T19:59:06.925Z,21.60
2023-02-07T20:01:38.172Z,23.43
2023-02-07T20:04:07.748Z,23.90
2023-02-07T20:06:38.393Z,22.17
2023-02-07T20:09:09.310Z,23.27
2023-02-07T20:11:38.140Z,19.43
2023-02-07T20:14:07.926Z,19.03
2023-02-07T20:16:40.010Z,23.53
2023-02-07T20:19:09.779Z,22.57
2023-02-07T20:21:41.019Z,22.27
2023-02-07T20:24:10.537Z,22.57
2023-02-07T20:26:42.668Z,22.43
2023-02-07T20:29:14.885Z,20.87
2023-02-07T20:31:45.728Z,21.03
2023-02-07T20:34:15.848Z,20.67
2023-02-07T20:36:46.716Z,20.43
2023-02-07T20:39:18.660Z,21.13
2023-02-07T20:41:49.573Z,25.33
2023-02-07T20:44:20.871Z,22.97
2023-02-07T20:46:51.102Z,21.93
2023-02-07T20:49:23.852Z,23.90
2023-02-07T20:51:56.311Z,22.07
2023-02-07T20:54:27.810Z,23.47
2023-02-07T20:56:57.830Z,22.43
2023-02-07T20:59:29.538Z,22.27
2023-02-07T21:01:58.620Z,20.17
2023-02-07T21:04:29.519Z,23.20
2023-02-07T21:07:01.178Z,21.83
2023-02-07T21:09:31.072Z,22.73
2023-02-07T21:12:00.190Z,22.10
2023-02-07T21:14:32.694Z,20.07
2023-02-07T21:17:06.368Z,23.43
2023-02-07T21:19:36.990Z,23.90
2023-02-07T21:22:07.991Z,18.03
2023-02-07T21:24:36.982Z,21.33
2023-02-07T21:27:06.319Z,20.80
2023-02-07T21:29:36.534Z,18.87
2023-02-07T21:32:05.434Z,25.00
2023-02-07T21:34:34.240Z,18.83
2023-02-07T21:37:02.984Z,19.07
2023-02-07T21:39:33.182Z,20.87
2023-02-07T21:42:02.029Z,21.20
2023-02-07T21:44:30.795Z,18.90
2023-02-07T21:46:59.577Z,21.53
2023-02-07T21:49:28.401Z,18.73
2023-02-07T21:51:58.289Z,21.63
2023-02-07T21:54:27.066Z,23.33
2023-02-07T21:56:57.352Z,17.47
2023-02-07T21:59:26.118Z,18.83
2023-02-07T22:01:55.329Z,22.87
2023-02-07T22:04:24.284Z,19.00
2023-02-07T22:06:53.261Z,21.37
2023-02-07T22:09:23.629Z,20.97
2023-02-07T22:11:54.565Z,22.90
2023-02-07T22:14:26.031Z,21.40
2023-02-07T22:16:55.787Z,19.07
2023-02-07T22:19:25.331Z,21.80
2023-02-07T22:21:54.169Z,22.20
2023-02-07T22:24:23.286Z,19.13
2023-02-07T22:26:52.070Z,20.80
2023-02-07T22:29:20.876Z,20.90
2023-02-07T22:31:51.261Z,21.63
2023-02-07T22:34:20.259Z,17.27
2023-02-07T22:36:49.093Z,19.80
2023-02-07T22:39:21.078Z,25.10
2023-02-07T22:41:49.872Z,24.30
2023-02-07T22:44:18.649Z,25.80
2023-02-07T22:46:47.445Z,25.63
2023-02-07T22:49:17.669Z,22.80
2023-02-07T22:51:47.536Z,19.73
2023-02-07T22:54:19.929Z,17.37
2023-02-07T22:56:48.871Z,18.30
2023-02-07T22:59:17.775Z,20.17
2023-02-07T23:01:47.040Z,19.93
2023-02-07T23:04:19.051Z,18.37
2023-02-07T23:06:48.859Z,19.70
2023-02-07T23:09:18.817Z,16.53
2023-02-07T23:11:47.693Z,17.63
2023-02-07T23:14:17.405Z,21.70
2023-02-07T23:16:46.162Z,19.20
2023-02-07T23:19:18.959Z,21.63
2023-02-07T23:21:47.694Z,19.87
2023-02-07T23:24:16.849Z,20.07
2023-02-07T23:26:45.704Z,22.10
2023-02-07T23:29:14.534Z,20.63
2023-02-07T23:31:43.450Z,22.73
2023-02-07T23:34:12.366Z,18.47
2023-02-07T23:36:42.638Z,22.03
2023-02-07T23:39:13.440Z,21.77
2023-02-07T23:41:42.438Z,21.70
2023-02-07T23:44:11.377Z,17.77
2023-02-07T23:46:40.806Z,15.10
2023-02-07T23:49:09.742Z,16.97
2023-02-07T23:51:38.749Z,16.63
2023-02-07T23:54:09.329Z,17.23
2023-02-07T23:56:38.092Z,15.70
2023-02-07T23:59:06.857Z,17.00
